Hudgins, Virginia
Current Conditions -  °F | °C
As of 8:35 AM on Thursday 18 Dec 2014 (Local Time) from KW75 Reporting Station
Clear Clear  
Wind Chill: 30°   Ceiling: Unl
Heat Index: 37°   Visibility: 10mi
Dew Point: 23°   Wind: 9mph
Humidity: 58%   Direction: 330°NNW
Pressure: 30.16"   Gusts: NA
Location:  37.47°N, 76.33°W
Report Text: KW75 181335Z AUTO 33008KT 10SM CLR 03/M05 A3016 RMK AO1 T00251050
Loading
Personal Weather Stations






























Interactive Weather Map New forecast layout! Learn more

10-Day Weather Forecast

Advertisements
Track Severe Weather on mobile